sensor_id;sensor_type;location;lat;lon;timestamp;temperature;humidity
19888;DHT22;10106;51.332;12.336;2023-09-18T00:00:48;19.50;99.90
19888;DHT22;10106;51.332;12.336;2023-09-18T00:03:20;19.50;99.90
19888;DHT22;10106;51.332;12.336;2023-09-18T00:05:46;19.50;99.90
19888;DHT22;10106;51.332;12.336;2023-09-18T00:08:13;19.50;99.90
19888;DHT22;10106;51.332;12.336;2023-09-18T00:10:39;19.40;99.90
19888;DHT22;10106;51.332;12.336;2023-09-18T00:13:05;19.40;99.90
19888;DHT22;10106;51.332;12.336;2023-09-18T00:15:30;19.40;99.90
19888;DHT22;10106;51.332;12.336;2023-09-18T00:17:56;19.30;99.90
19888;DHT22;10106;51.332;12.336;2023-09-18T00:22:55;19.30;99.90
19888;DHT22;10106;51.332;12.336;2023-09-18T00:25:24;19.30;99.90
19888;DHT22;10106;51.332;12.336;2023-09-18T00:27:49;19.30;99.90
19888;DHT22;10106;51.332;12.336;2023-09-18T00:30:17;19.30;99.90
19888;DHT22;10106;51.332;12.336;2023-09-18T00:32:43;19.20;99.90
19888;DHT22;10106;51.332;12.336;2023-09-18T00:35:08;19.20;99.90
19888;DHT22;10106;51.332;12.336;2023-09-18T00:37:34;19.20;99.90
19888;DHT22;10106;51.332;12.336;2023-09-18T00:40:01;19.20;99.90
19888;DHT22;10106;51.332;12.336;2023-09-18T00:42:26;19.10;99.90
19888;DHT22;10106;51.332;12.336;2023-09-18T00:44:52;19.10;99.90
19888;DHT22;10106;51.332;12.336;2023-09-18T00:47:18;19.00;99.90
19888;DHT22;10106;51.332;12.336;2023-09-18T00:49:44;19.00;99.90
19888;DHT22;10106;51.332;12.336;2023-09-18T00:52:12;19.00;99.90
19888;DHT22;10106;51.332;12.336;2023-09-18T00:54:38;18.90;99.90
19888;DHT22;10106;51.332;12.336;2023-09-18T00:57:04;18.80;99.90
19888;DHT22;10106;51.332;12.336;2023-09-18T00:59:30;18.80;99.90
19888;DHT22;10106;51.332;12.336;2023-09-18T01:01:56;18.80;99.90
19888;DHT22;10106;51.332;12.336;2023-09-18T01:04:22;18.70;99.90
19888;DHT22;10106;51.332;12.336;2023-09-18T01:06:48;18.70;99.90
19888;DHT22;10106;51.332;12.336;2023-09-18T01:09:16;18.70;99.90
19888;DHT22;10106;51.332;12.336;2023-09-18T01:16:58;18.70;99.90
19888;DHT22;10106;51.332;12.336;2023-09-18T01:19:40;18.70;99.90
19888;DHT22;10106;51.332;12.336;2023-09-18T01:22:06;18.70;99.90
19888;DHT22;10106;51.332;12.336;2023-09-18T01:24:33;18.70;99.90
19888;DHT22;10106;51.332;12.336;2023-09-18T01:29:25;18.70;99.90
19888;DHT22;10106;51.332;12.336;2023-09-18T01:31:50;18.80;99.90
19888;DHT22;10106;51.332;12.336;2023-09-18T01:34:25;18.80;99.90
19888;DHT22;10106;51.332;12.336;2023-09-18T01:36:52;18.70;99.90
19888;DHT22;10106;51.332;12.336;2023-09-18T01:39:18;18.70;99.90
19888;DHT22;10106;51.332;12.336;2023-09-18T01:41:45;18.70;99.90
19888;DHT22;10106;51.332;12.336;2023-09-18T01:44:11;18.70;99.90
19888;DHT22;10106;51.332;12.336;2023-09-18T01:46:36;18.70;99.90
19888;DHT22;10106;51.332;12.336;2023-09-18T01:51:29;18.70;99.90
19888;DHT22;10106;51.332;12.336;2023-09-18T01:53:55;18.70;99.90
19888;DHT22;10106;51.332;12.336;2023-09-18T01:56:21;18.60;99.90
19888;DHT22;10106;51.332;12.336;2023-09-18T01:58:49;18.60;99.90
19888;DHT22;10106;51.332;12.336;2023-09-18T02:01:15;18.60;99.90
19888;DHT22;10106;51.332;12.336;2023-09-18T02:03:40;18.50;99.90
19888;DHT22;10106;51.332;12.336;2023-09-18T02:06:07;18.50;99.90
19888;DHT22;10106;51.332;12.336;2023-09-18T02:08:34;18.40;99.90
19888;DHT22;10106;51.332;12.336;2023-09-18T02:10:59;18.40;99.90
19888;DHT22;10106;51.332;12.336;2023-09-18T02:13:25;18.40;99.90
19888;DHT22;10106;51.332;12.336;2023-09-18T02:15:51;18.40;99.90
19888;DHT22;10106;51.332;12.336;2023-09-18T02:18:16;18.40;99.90
19888;DHT22;10106;51.332;12.336;2023-09-18T02:20:43;18.40;99.90
19888;DHT22;10106;51.332;12.336;2023-09-18T02:23:12;18.40;99.90
19888;DHT22;10106;51.332;12.336;2023-09-18T02:25:38;18.40;99.90
19888;DHT22;10106;51.332;12.336;2023-09-18T02:28:05;18.30;99.90
19888;DHT22;10106;51.332;12.336;2023-09-18T02:30:31;18.30;99.90
19888;DHT22;10106;51.332;12.336;2023-09-18T02:32:57;18.30;99.90
19888;DHT22;10106;51.332;12.336;2023-09-18T02:35:22;18.30;99.90
19888;DHT22;10106;51.332;12.336;2023-09-18T02:37:48;18.30;99.90
19888;DHT22;10106;51.332;12.336;2023-09-18T02:40:13;18.30;99.90
19888;DHT22;10106;51.332;12.336;2023-09-18T02:42:39;18.20;99.90
19888;DHT22;10106;51.332;12.336;2023-09-18T02:45:05;18.20;99.90
19888;DHT22;10106;51.332;12.336;2023-09-18T02:47:30;18.20;99.90
19888;DHT22;10106;51.332;12.336;2023-09-18T02:49:58;18.10;99.90
19888;DHT22;10106;51.332;12.336;2023-09-18T02:52:24;18.20;99.90
19888;DHT22;10106;51.332;12.336;2023-09-18T02:54:49;18.10;99.90
19888;DHT22;10106;51.332;12.336;2023-09-18T02:57:15;18.10;99.90
19888;DHT22;10106;51.332;12.336;2023-09-18T02:59:41;18.00;99.90
19888;DHT22;10106;51.332;12.336;2023-09-18T03:02:06;17.90;99.90
19888;DHT22;10106;51.332;12.336;2023-09-18T03:04:32;17.90;99.90
19888;DHT22;10106;51.332;12.336;2023-09-18T03:06:57;17.80;99.90
19888;DHT22;10106;51.332;12.336;2023-09-18T03:09:23;17.80;99.90
19888;DHT22;10106;51.332;12.336;2023-09-18T03:11:49;17.70;99.90
19888;DHT22;10106;51.332;12.336;2023-09-18T03:14:14;17.70;99.90
19888;DHT22;10106;51.332;12.336;2023-09-18T03:16:40;17.70;99.90
19888;DHT22;10106;51.332;12.336;2023-09-18T03:19:05;17.70;99.90
19888;DHT22;10106;51.332;12.336;2023-09-18T03:21:31;17.60;99.90
19888;DHT22;10106;51.332;12.336;2023-09-18T03:23:59;17.60;99.90
19888;DHT22;10106;51.332;12.336;2023-09-18T03:26:24;17.60;99.90
19888;DHT22;10106;51.332;12.336;2023-09-18T03:28:50;17.60;99.90
19888;DHT22;10106;51.332;12.336;2023-09-18T03:31:16;17.60;99.90
19888;DHT22;10106;51.332;12.336;2023-09-18T03:33:41;17.60;99.90
19888;DHT22;10106;51.332;12.336;2023-09-18T03:36:07;17.60;99.90
19888;DHT22;10106;51.332;12.336;2023-09-18T03:38:33;17.60;99.90
19888;DHT22;10106;51.332;12.336;2023-09-18T03:41:00;17.60;99.90
19888;DHT22;10106;51.332;12.336;2023-09-18T03:43:26;17.50;99.90
19888;DHT22;10106;51.332;12.336;2023-09-18T03:45:52;17.50;99.90
19888;DHT22;10106;51.332;12.336;2023-09-18T03:48:18;17.40;99.90
19888;DHT22;10106;51.332;12.336;2023-09-18T03:50:44;17.40;99.90
19888;DHT22;10106;51.332;12.336;2023-09-18T03:53:10;17.40;99.90
19888;DHT22;10106;51.332;12.336;2023-09-18T03:55:36;17.40;99.90
19888;DHT22;10106;51.332;12.336;2023-09-18T03:58:01;17.40;99.90
19888;DHT22;10106;51.332;12.336;2023-09-18T04:00:28;17.40;99.90
19888;DHT22;10106;51.332;12.336;2023-09-18T04:02:54;17.40;99.90
19888;DHT22;10106;51.332;12.336;2023-09-18T04:05:19;17.30;99.90
19888;DHT22;10106;51.332;12.336;2023-09-18T04:07:45;17.20;99.90
19888;DHT22;10106;51.332;12.336;2023-09-18T04:10:12;17.20;99.90
19888;DHT22;10106;51.332;12.336;2023-09-18T04:12:43;17.10;99.90
19888;DHT22;10106;51.332;12.336;2023-09-18T04:15:13;17.00;99.90
19888;DHT22;10106;51.332;12.336;2023-09-18T04:17:39;16.90;99.90
19888;DHT22;10106;51.332;12.336;2023-09-18T04:20:05;16.90;99.90
19888;DHT22;10106;51.332;12.336;2023-09-18T04:22:31;16.80;99.90
19888;DHT22;10106;51.332;12.336;2023-09-18T04:24:57;16.80;99.90
19888;DHT22;10106;51.332;12.336;2023-09-18T04:27:22;16.80;99.90
19888;DHT22;10106;51.332;12.336;2023-09-18T04:29:48;16.80;99.90
19888;DHT22;10106;51.332;12.336;2023-09-18T04:32:13;16.70;99.90
19888;DHT22;10106;51.332;12.336;2023-09-18T04:34:39;16.70;99.90
19888;DHT22;10106;51.332;12.336;2023-09-18T04:37:05;16.70;99.90
19888;DHT22;10106;51.332;12.336;2023-09-18T04:39:30;16.70;99.90
19888;DHT22;10106;51.332;12.336;2023-09-18T04:42:00;16.70;99.90
19888;DHT22;10106;51.332;12.336;2023-09-18T04:44:28;16.60;99.90
19888;DHT22;10106;51.332;12.336;2023-09-18T04:46:54;16.60;99.90
19888;DHT22;10106;51.332;12.336;2023-09-18T04:49:19;16.60;99.90
19888;DHT22;10106;51.332;12.336;2023-09-18T04:51:45;16.60;99.90
19888;DHT22;10106;51.332;12.336;2023-09-18T04:54:10;16.70;99.90
19888;DHT22;10106;51.332;12.336;2023-09-18T04:56:36;16.70;99.90
19888;DHT22;10106;51.332;12.336;2023-09-18T04:59:02;16.70;99.90
19888;DHT22;10106;51.332;12.336;2023-09-18T05:06:39;16.90;99.90
19888;DHT22;10106;51.332;12.336;2023-09-18T05:09:06;16.90;99.90
19888;DHT22;10106;51.332;12.336;2023-09-18T05:11:31;17.00;99.90
19888;DHT22;10106;51.332;12.336;2023-09-18T05:13:58;17.00;99.90
19888;DHT22;10106;51.332;12.336;2023-09-18T05:16:24;17.10;99.90
19888;DHT22;10106;51.332;12.336;2023-09-18T05:18:50;17.20;99.90
19888;DHT22;10106;51.332;12.336;2023-09-18T05:21:15;17.30;99.90
19888;DHT22;10106;51.332;12.336;2023-09-18T05:23:42;17.30;99.90
19888;DHT22;10106;51.332;12.336;2023-09-18T05:26:08;17.40;99.90
19888;DHT22;10106;51.332;12.336;2023-09-18T05:28:34;17.40;99.90
19888;DHT22;10106;51.332;12.336;2023-09-18T05:31:00;17.50;99.90
19888;DHT22;10106;51.332;12.336;2023-09-18T05:33:25;17.60;99.90
19888;DHT22;10106;51.332;12.336;2023-09-18T05:35:51;17.60;99.90
19888;DHT22;10106;51.332;12.336;2023-09-18T05:38:17;17.90;99.90
19888;DHT22;10106;51.332;12.336;2023-09-18T05:40:43;18.20;99.90
19888;DHT22;10106;51.332;12.336;2023-09-18T05:43:09;18.70;99.90
19888;DHT22;10106;51.332;12.336;2023-09-18T05:45:35;19.10;99.90
19888;DHT22;10106;51.332;12.336;2023-09-18T05:48:02;19.60;99.90
19888;DHT22;10106;51.332;12.336;2023-09-18T05:50:31;19.90;99.90
19888;DHT22;10106;51.332;12.336;2023-09-18T05:52:57;20.00;99.90
19888;DHT22;10106;51.332;12.336;2023-09-18T05:55:32;20.20;99.90
19888;DHT22;10106;51.332;12.336;2023-09-18T05:57:59;20.30;99.90
19888;DHT22;10106;51.332;12.336;2023-09-18T06:00:27;20.40;99.90
19888;DHT22;10106;51.332;12.336;2023-09-18T06:03:13;20.50;99.90
19888;DHT22;10106;51.332;12.336;2023-09-18T06:05:43;21.00;99.90
19888;DHT22;10106;51.332;12.336;2023-09-18T06:08:15;21.30;99.90
19888;DHT22;10106;51.332;12.336;2023-09-18T06:10:44;21.70;99.90
19888;DHT22;10106;51.332;12.336;2023-09-18T06:13:13;21.60;99.90
19888;DHT22;10106;51.332;12.336;2023-09-18T06:15:39;21.50;99.90
19888;DHT22;10106;51.332;12.336;2023-09-18T06:18:14;21.70;99.90
19888;DHT22;10106;51.332;12.336;2023-09-18T06:20:42;21.90;99.90
19888;DHT22;10106;51.332;12.336;2023-09-18T06:23:19;21.80;99.90
19888;DHT22;10106;51.332;12.336;2023-09-18T06:25:51;21.70;99.90
19888;DHT22;10106;51.332;12.336;2023-09-18T06:28:27;22.30;99.90
19888;DHT22;10106;51.332;12.336;2023-09-18T06:31:35;23.50;99.90
19888;DHT22;10106;51.332;12.336;2023-09-18T06:34:32;24.30;99.90
19888;DHT22;10106;51.332;12.336;2023-09-18T06:37:05;24.10;99.90
19888;DHT22;10106;51.332;12.336;2023-09-18T06:39:35;25.20;99.90
19888;DHT22;10106;51.332;12.336;2023-09-18T06:42:01;27.60;99.90
19888;DHT22;10106;51.332;12.336;2023-09-18T06:44:27;28.90;99.90
19888;DHT22;10106;51.332;12.336;2023-09-18T06:46:56;30.10;99.90
19888;DHT22;10106;51.332;12.336;2023-09-18T06:49:21;31.00;97.60
19888;DHT22;10106;51.332;12.336;2023-09-18T06:51:47;31.70;95.90
19888;DHT22;10106;51.332;12.336;2023-09-18T06:54:13;32.50;93.50
19888;DHT22;10106;51.332;12.336;2023-09-18T06:56:39;33.00;91.40
19888;DHT22;10106;51.332;12.336;2023-09-18T06:59:04;32.60;90.30
19888;DHT22;10106;51.332;12.336;2023-09-18T07:01:32;32.80;90.20
19888;DHT22;10106;51.332;12.336;2023-09-18T07:03:58;32.90;88.00
19888;DHT22;10106;51.332;12.336;2023-09-18T07:06:25;32.20;88.50
19888;DHT22;10106;51.332;12.336;2023-09-18T07:08:50;31.30;89.70
19888;DHT22;10106;51.332;12.336;2023-09-18T07:11:17;30.50;90.60
19888;DHT22;10106;51.332;12.336;2023-09-18T07:13:52;29.70;91.50
19888;DHT22;10106;51.332;12.336;2023-09-18T07:16:17;28.40;92.90
19888;DHT22;10106;51.332;12.336;2023-09-18T07:19:03;27.50;94.30
19888;DHT22;10106;51.332;12.336;2023-09-18T07:21:30;26.70;96.10
19888;DHT22;10106;51.332;12.336;2023-09-18T07:24:01;27.10;96.60
19888;DHT22;10106;51.332;12.336;2023-09-18T07:26:31;27.10;96.70
19888;DHT22;10106;51.332;12.336;2023-09-18T07:28:57;27.40;96.50
19888;DHT22;10106;51.332;12.336;2023-09-18T07:31:23;27.80;96.60
19888;DHT22;10106;51.332;12.336;2023-09-18T07:33:48;28.80;95.70
19888;DHT22;10106;51.332;12.336;2023-09-18T07:36:14;29.40;95.30
19888;DHT22;10106;51.332;12.336;2023-09-18T07:38:40;30.40;93.50
19888;DHT22;10106;51.332;12.336;2023-09-18T07:41:08;30.40;92.60
19888;DHT22;10106;51.332;12.336;2023-09-18T07:43:34;29.70;93.10
19888;DHT22;10106;51.332;12.336;2023-09-18T07:45:59;29.80;92.90
19888;DHT22;10106;51.332;12.336;2023-09-18T07:50:58;29.70;92.90
19888;DHT22;10106;51.332;12.336;2023-09-18T07:53:23;28.90;93.20
19888;DHT22;10106;51.332;12.336;2023-09-18T07:55:54;27.60;94.50
19888;DHT22;10106;51.332;12.336;2023-09-18T07:58:20;27.10;95.80
19888;DHT22;10106;51.332;12.336;2023-09-18T08:00:48;26.80;95.80
19888;DHT22;10106;51.332;12.336;2023-09-18T08:03:17;25.60;97.40
19888;DHT22;10106;51.332;12.336;2023-09-18T08:05:42;25.20;98.60
19888;DHT22;10106;51.332;12.336;2023-09-18T08:08:08;24.80;99.50
19888;DHT22;10106;51.332;12.336;2023-09-18T08:10:36;24.80;99.90
19888;DHT22;10106;51.332;12.336;2023-09-18T08:13:02;24.90;99.90
19888;DHT22;10106;51.332;12.336;2023-09-18T08:15:28;25.10;99.90
19888;DHT22;10106;51.332;12.336;2023-09-18T08:17:54;25.10;99.90
19888;DHT22;10106;51.332;12.336;2023-09-18T08:20:22;25.30;99.90
19888;DHT22;10106;51.332;12.336;2023-09-18T08:22:48;25.40;99.90
19888;DHT22;10106;51.332;12.336;2023-09-18T08:25:14;25.50;99.90
19888;DHT22;10106;51.332;12.336;2023-09-18T08:27:40;25.40;99.90
19888;DHT22;10106;51.332;12.336;2023-09-18T08:30:13;25.30;99.90
19888;DHT22;10106;51.332;12.336;2023-09-18T08:32:39;24.90;99.90
19888;DHT22;10106;51.332;12.336;2023-09-18T08:35:05;25.00;99.90
19888;DHT22;10106;51.332;12.336;2023-09-18T08:37:34;24.90;99.90
19888;DHT22;10106;51.332;12.336;2023-09-18T08:39:59;24.90;99.90
19888;DHT22;10106;51.332;12.336;2023-09-18T08:42:35;24.80;99.90
19888;DHT22;10106;51.332;12.336;2023-09-18T08:45:02;25.10;99.90
19888;DHT22;10106;51.332;12.336;2023-09-18T08:47:31;25.20;99.90
19888;DHT22;10106;51.332;12.336;2023-09-18T08:49:57;25.70;99.90
19888;DHT22;10106;51.332;12.336;2023-09-18T08:52:31;26.80;99.90
19888;DHT22;10106;51.332;12.336;2023-09-18T08:54:57;27.80;98.90
19888;DHT22;10106;51.332;12.336;2023-09-18T08:57:24;28.40;97.30
19888;DHT22;10106;51.332;12.336;2023-09-18T08:59:50;28.40;97.40
19888;DHT22;10106;51.332;12.336;2023-09-18T09:02:16;29.90;96.10
19888;DHT22;10106;51.332;12.336;2023-09-18T09:04:43;31.70;93.80
19888;DHT22;10106;51.332;12.336;2023-09-18T09:07:09;30.90;92.60
19888;DHT22;10106;51.332;12.336;2023-09-18T09:09:35;29.70;93.20
19888;DHT22;10106;51.332;12.336;2023-09-18T09:12:00;28.60;94.30
19888;DHT22;10106;51.332;12.336;2023-09-18T09:14:29;27.90;95.50
19888;DHT22;10106;51.332;12.336;2023-09-18T09:16:55;27.30;96.40
19888;DHT22;10106;51.332;12.336;2023-09-18T09:19:29;26.90;96.90
19888;DHT22;10106;51.332;12.336;2023-09-18T09:21:55;26.70;97.60
19888;DHT22;10106;51.332;12.336;2023-09-18T09:27:16;26.00;99.10
19888;DHT22;10106;51.332;12.336;2023-09-18T09:29:44;25.80;99.70
19888;DHT22;10106;51.332;12.336;2023-09-18T09:32:14;25.60;99.90
19888;DHT22;10106;51.332;12.336;2023-09-18T09:34:40;25.50;99.90
19888;DHT22;10106;51.332;12.336;2023-09-18T09:37:06;25.40;99.90
19888;DHT22;10106;51.332;12.336;2023-09-18T09:39:32;25.50;99.90
19888;DHT22;10106;51.332;12.336;2023-09-18T09:42:00;25.50;99.90
19888;DHT22;10106;51.332;12.336;2023-09-18T09:44:28;25.70;99.90
19888;DHT22;10106;51.332;12.336;2023-09-18T09:46:56;25.80;99.90
19888;DHT22;10106;51.332;12.336;2023-09-18T09:49:24;25.90;99.90
19888;DHT22;10106;51.332;12.336;2023-09-18T09:51:53;25.90;99.90
19888;DHT22;10106;51.332;12.336;2023-09-18T09:54:31;26.00;99.90
19888;DHT22;10106;51.332;12.336;2023-09-18T09:56:59;25.90;99.90
19888;DHT22;10106;51.332;12.336;2023-09-18T09:59:28;26.10;99.90
19888;DHT22;10106;51.332;12.336;2023-09-18T10:01:55;26.40;99.90
19888;DHT22;10106;51.332;12.336;2023-09-18T10:04:22;26.70;99.90
19888;DHT22;10106;51.332;12.336;2023-09-18T10:06:52;26.70;99.90
19888;DHT22;10106;51.332;12.336;2023-09-18T10:09:21;26.60;99.90
19888;DHT22;10106;51.332;12.336;2023-09-18T10:11:51;26.50;99.90
19888;DHT22;10106;51.332;12.336;2023-09-18T10:14:19;26.30;99.90
19888;DHT22;10106;51.332;12.336;2023-09-18T10:16:50;26.00;99.90
19888;DHT22;10106;51.332;12.336;2023-09-18T10:19:25;25.80;99.90
19888;DHT22;10106;51.332;12.336;2023-09-18T10:22:06;25.70;99.90
19888;DHT22;10106;51.332;12.336;2023-09-18T10:24:39;25.70;99.90
19888;DHT22;10106;51.332;12.336;2023-09-18T10:27:06;25.70;99.90
19888;DHT22;10106;51.332;12.336;2023-09-18T10:29:36;25.80;99.90
19888;DHT22;10106;51.332;12.336;2023-09-18T10:37:55;26.20;99.90
19888;DHT22;10106;51.332;12.336;2023-09-18T10:40:35;26.80;99.90
19888;DHT22;10106;51.332;12.336;2023-09-18T10:43:04;27.20;99.90
19888;DHT22;10106;51.332;12.336;2023-09-18T10:45:34;28.00;99.90
19888;DHT22;10106;51.332;12.336;2023-09-18T10:51:02;29.10;98.30
19888;DHT22;10106;51.332;12.336;2023-09-18T10:56:10;28.50;97.70
19888;DHT22;10106;51.332;12.336;2023-09-18T10:58:36;28.20;98.20
19888;DHT22;10106;51.332;12.336;2023-09-18T11:01:07;28.30;97.90
19888;DHT22;10106;51.332;12.336;2023-09-18T11:03:33;28.10;97.90
19888;DHT22;10106;51.332;12.336;2023-09-18T11:06:06;28.10;98.50
19888;DHT22;10106;51.332;12.336;2023-09-18T11:08:35;28.10;98.30
19888;DHT22;10106;51.332;12.336;2023-09-18T11:11:11;27.80;98.50
19888;DHT22;10106;51.332;12.336;2023-09-18T11:13:45;27.80;98.90
19888;DHT22;10106;51.332;12.336;2023-09-18T11:22:13;27.20;98.90
19888;DHT22;10106;51.332;12.336;2023-09-18T11:24:45;27.10;99.30
19888;DHT22;10106;51.332;12.336;2023-09-18T11:27:16;27.20;99.70
19888;DHT22;10106;51.332;12.336;2023-09-18T11:30:15;27.40;99.30
19888;DHT22;10106;51.332;12.336;2023-09-18T11:32:54;27.60;98.90
19888;DHT22;10106;51.332;12.336;2023-09-18T11:35:33;27.80;98.80
19888;DHT22;10106;51.332;12.336;2023-09-18T11:38:06;27.90;98.50
19888;DHT22;10106;51.332;12.336;2023-09-18T11:40:37;27.70;98.70
19888;DHT22;10106;51.332;12.336;2023-09-18T11:43:26;27.90;98.90
19888;DHT22;10106;51.332;12.336;2023-09-18T11:46:18;28.10;98.60
19888;DHT22;10106;51.332;12.336;2023-09-18T11:48:48;28.00;98.50
19888;DHT22;10106;51.332;12.336;2023-09-18T11:51:26;27.90;98.70
19888;DHT22;10106;51.332;12.336;2023-09-18T11:53:55;27.70;99.10
19888;DHT22;10106;51.332;12.336;2023-09-18T11:56:28;27.50;99.90
19888;DHT22;10106;51.332;12.336;2023-09-18T11:59:17;27.10;99.90
19888;DHT22;10106;51.332;12.336;2023-09-18T12:02:03;26.60;99.90
19888;DHT22;10106;51.332;12.336;2023-09-18T12:04:33;26.20;99.90
19888;DHT22;10106;51.332;12.336;2023-09-18T12:07:19;25.90;99.90
19888;DHT22;10106;51.332;12.336;2023-09-18T12:09:53;25.70;99.90
19888;DHT22;10106;51.332;12.336;2023-09-18T12:12:20;25.50;99.90
19888;DHT22;10106;51.332;12.336;2023-09-18T12:14:46;25.20;99.90
19888;DHT22;10106;51.332;12.336;2023-09-18T12:17:15;25.10;99.90
19888;DHT22;10106;51.332;12.336;2023-09-18T12:19:54;25.10;99.90
19888;DHT22;10106;51.332;12.336;2023-09-18T12:22:25;25.00;99.90
19888;DHT22;10106;51.332;12.336;2023-09-18T12:24:51;24.90;99.90
19888;DHT22;10106;51.332;12.336;2023-09-18T12:27:20;24.80;99.90
19888;DHT22;10106;51.332;12.336;2023-09-18T12:29:56;24.60;99.90
19888;DHT22;10106;51.332;12.336;2023-09-18T12:32:33;24.50;99.90
19888;DHT22;10106;51.332;12.336;2023-09-18T12:35:05;24.40;99.90
19888;DHT22;10106;51.332;12.336;2023-09-18T12:40:30;24.20;99.90
19888;DHT22;10106;51.332;12.336;2023-09-18T12:43:05;24.20;99.90
19888;DHT22;10106;51.332;12.336;2023-09-18T12:45:33;24.30;99.90
19888;DHT22;10106;51.332;12.336;2023-09-18T12:48:00;24.40;99.90
19888;DHT22;10106;51.332;12.336;2023-09-18T12:50:29;24.50;99.90
19888;DHT22;10106;51.332;12.336;2023-09-18T12:53:15;24.60;99.90
19888;DHT22;10106;51.332;12.336;2023-09-18T13:01:58;24.80;99.90
19888;DHT22;10106;51.332;12.336;2023-09-18T13:04:32;24.60;99.90
19888;DHT22;10106;51.332;12.336;2023-09-18T13:07:11;24.40;99.90
19888;DHT22;10106;51.332;12.336;2023-09-18T13:09:43;24.30;99.90
19888;DHT22;10106;51.332;12.336;2023-09-18T13:12:17;24.30;99.90
19888;DHT22;10106;51.332;12.336;2023-09-18T13:14:58;24.20;99.90
19888;DHT22;10106;51.332;12.336;2023-09-18T13:17:45;24.10;99.90
19888;DHT22;10106;51.332;12.336;2023-09-18T13:20:13;23.90;99.90
19888;DHT22;10106;51.332;12.336;2023-09-18T13:23:15;23.80;99.90
19888;DHT22;10106;51.332;12.336;2023-09-18T13:25:43;23.70;99.90
19888;DHT22;10106;51.332;12.336;2023-09-18T13:28:14;23.70;99.90
19888;DHT22;10106;51.332;12.336;2023-09-18T13:30:46;23.70;99.90
19888;DHT22;10106;51.332;12.336;2023-09-18T13:33:13;23.60;99.90
19888;DHT22;10106;51.332;12.336;2023-09-18T13:35:47;23.60;99.90
19888;DHT22;10106;51.332;12.336;2023-09-18T13:38:17;23.60;99.90
19888;DHT22;10106;51.332;12.336;2023-09-18T13:40:55;23.60;99.90
19888;DHT22;10106;51.332;12.336;2023-09-18T13:43:20;23.60;99.90
19888;DHT22;10106;51.332;12.336;2023-09-18T13:45:48;23.60;99.90
19888;DHT22;10106;51.332;12.336;2023-09-18T13:48:17;23.60;99.90
19888;DHT22;10106;51.332;12.336;2023-09-18T13:50:42;23.70;99.90
19888;DHT22;10106;51.332;12.336;2023-09-18T13:53:11;23.70;99.90
19888;DHT22;10106;51.332;12.336;2023-09-18T13:55:37;23.70;99.90
19888;DHT22;10106;51.332;12.336;2023-09-18T13:58:03;23.70;99.90
19888;DHT22;10106;51.332;12.336;2023-09-18T14:00:32;23.70;99.90
19888;DHT22;10106;51.332;12.336;2023-09-18T14:02:58;23.60;99.90
19888;DHT22;10106;51.332;12.336;2023-09-18T14:05:24;23.50;99.90
19888;DHT22;10106;51.332;12.336;2023-09-18T14:07:51;23.40;99.90
19888;DHT22;10106;51.332;12.336;2023-09-18T14:10:16;23.40;99.90
19888;DHT22;10106;51.332;12.336;2023-09-18T14:12:43;23.20;99.90
19888;DHT22;10106;51.332;12.336;2023-09-18T14:15:10;23.10;99.90
19888;DHT22;10106;51.332;12.336;2023-09-18T14:17:37;22.90;99.90
19888;DHT22;10106;51.332;12.336;2023-09-18T14:20:05;22.80;99.90
19888;DHT22;10106;51.332;12.336;2023-09-18T14:22:34;22.70;99.90
19888;DHT22;10106;51.332;12.336;2023-09-18T14:25:00;22.50;99.90
19888;DHT22;10106;51.332;12.336;2023-09-18T14:27:29;22.30;99.90
19888;DHT22;10106;51.332;12.336;2023-09-18T14:29:55;22.20;99.90
19888;DHT22;10106;51.332;12.336;2023-09-18T14:32:24;22.20;99.90
19888;DHT22;10106;51.332;12.336;2023-09-18T14:34:50;22.20;99.90
19888;DHT22;10106;51.332;12.336;2023-09-18T14:37:19;22.20;99.90
19888;DHT22;10106;51.332;12.336;2023-09-18T14:39:45;22.20;99.90
19888;DHT22;10106;51.332;12.336;2023-09-18T14:42:12;22.10;99.90
19888;DHT22;10106;51.332;12.336;2023-09-18T14:44:41;22.00;99.90
19888;DHT22;10106;51.332;12.336;2023-09-18T14:47:10;22.00;99.90
19888;DHT22;10106;51.332;12.336;2023-09-18T14:49:36;21.80;99.90
19888;DHT22;10106;51.332;12.336;2023-09-18T14:52:02;21.70;99.90
19888;DHT22;10106;51.332;12.336;2023-09-18T14:54:28;21.60;99.90
19888;DHT22;10106;51.332;12.336;2023-09-18T14:56:55;21.60;99.90
19888;DHT22;10106;51.332;12.336;2023-09-18T14:59:30;21.60;99.90
19888;DHT22;10106;51.332;12.336;2023-09-18T15:01:55;21.50;99.90
19888;DHT22;10106;51.332;12.336;2023-09-18T15:04:21;21.50;99.90
19888;DHT22;10106;51.332;12.336;2023-09-18T15:06:47;21.40;99.90
19888;DHT22;10106;51.332;12.336;2023-09-18T15:09:13;21.40;99.90
19888;DHT22;10106;51.332;12.336;2023-09-18T15:11:39;21.30;99.90
19888;DHT22;10106;51.332;12.336;2023-09-18T15:14:05;21.30;99.90
19888;DHT22;10106;51.332;12.336;2023-09-18T15:16:31;21.20;99.90
19888;DHT22;10106;51.332;12.336;2023-09-18T15:18:57;21.10;99.90
19888;DHT22;10106;51.332;12.336;2023-09-18T15:21:29;21.10;99.90
19888;DHT22;10106;51.332;12.336;2023-09-18T15:23:55;21.10;99.90
19888;DHT22;10106;51.332;12.336;2023-09-18T15:26:20;21.10;99.90
19888;DHT22;10106;51.332;12.336;2023-09-18T15:28:49;21.00;99.90
19888;DHT22;10106;51.332;12.336;2023-09-18T15:31:16;21.10;99.90
19888;DHT22;10106;51.332;12.336;2023-09-18T15:33:42;21.10;99.90
19888;DHT22;10106;51.332;12.336;2023-09-18T15:36:13;21.10;99.90
19888;DHT22;10106;51.332;12.336;2023-09-18T15:38:39;21.00;99.90
19888;DHT22;10106;51.332;12.336;2023-09-18T15:41:05;21.00;99.90
19888;DHT22;10106;51.332;12.336;2023-09-18T15:43:31;21.00;99.90
19888;DHT22;10106;51.332;12.336;2023-09-18T15:45:57;21.00;99.90
19888;DHT22;10106;51.332;12.336;2023-09-18T15:48:24;21.00;99.90
19888;DHT22;10106;51.332;12.336;2023-09-18T15:50:52;21.00;99.90
19888;DHT22;10106;51.332;12.336;2023-09-18T15:53:18;21.00;99.90
19888;DHT22;10106;51.332;12.336;2023-09-18T15:55:44;21.00;99.90
19888;DHT22;10106;51.332;12.336;2023-09-18T15:58:10;21.00;99.90
19888;DHT22;10106;51.332;12.336;2023-09-18T16:00:37;20.90;99.90
19888;DHT22;10106;51.332;12.336;2023-09-18T16:03:04;20.90;99.90
19888;DHT22;10106;51.332;12.336;2023-09-18T16:05:31;20.80;99.90
19888;DHT22;10106;51.332;12.336;2023-09-18T16:07:57;20.80;99.90
19888;DHT22;10106;51.332;12.336;2023-09-18T16:10:30;20.70;99.90
19888;DHT22;10106;51.332;12.336;2023-09-18T16:12:57;20.70;99.90